Time;durP1;ratioP1;P1;durP2;ratioP2;P2;SDS_P1;SDS_P2;PMS_P1;PMS_P2;Temp;Humidity;BMP_temperature;BMP_pressure;BME280_temperature;BME280_humidity;BME280_pressure;Samples;Min_cycle;Max_cycle;Signal;HPM_P1;HPM_P2
2022/08/03 00:02:18;;;;;;;12.90;1.92;;;;;;;21.09;67.83;101412.88;4896239;29;20065;-75
2022/08/03 00:04:45;;;;;;;10.85;1.90;;;;;;;21.06;67.57;101404.19;4896632;29;20121;-75
2022/08/03 00:07:12;;;;;;;10.65;2.20;;;;;;;21.03;67.77;101397.19;4894041;29;20038;-75
2022/08/03 00:09:39;;;;;;;6.47;2.17;;;;;;;21.00;68.03;101394.75;4896411;29;20049;-75
2022/08/03 00:12:07;;;;;;;9.77;2.08;;;;;;;20.97;68.39;101397.59;4895550;29;20045;-75
2022/08/03 00:14:35;;;;;;;7.30;2.08;;;;;;;20.94;68.33;101392.44;4886063;29;20055;-75
2022/08/03 00:17:02;;;;;;;10.43;1.67;;;;;;;20.89;68.71;101392.75;4896797;29;20049;-75
2022/08/03 00:19:29;;;;;;;5.50;1.90;;;;;;;20.82;69.12;101401.28;4895813;29;20505;-75
2022/08/03 00:21:56;;;;;;;5.68;1.92;;;;;;;20.76;69.24;101402.53;4895419;29;20045;-75
2022/08/03 00:24:23;;;;;;;6.68;2.45;;;;;;;20.69;69.60;101403.84;4896925;29;20045;-75
2022/08/03 00:26:51;;;;;;;5.57;2.47;;;;;;;20.63;69.63;101399.75;4894452;29;20063;-75
2022/08/03 00:29:18;;;;;;;7.78;2.45;;;;;;;20.58;69.73;101400.06;4890676;29;20120;-74
2022/08/03 00:31:45;;;;;;;9.23;2.35;;;;;;;20.55;69.85;101396.72;4897348;29;20041;-75
2022/08/03 00:34:27;;;;;;;6.22;2.47;;;;;;;20.51;69.78;101398.72;4897747;29;20545;-76
2022/08/03 00:37:14;;;;;;;7.13;2.47;;;;;;;20.49;70.54;101400.63;4892714;29;20060;-76
2022/08/03 00:39:44;;;;;;;8.50;2.28;;;;;;;20.45;70.73;101399.97;4895696;29;20049;-76
2022/08/03 00:42:12;;;;;;;9.43;2.67;;;;;;;20.41;70.59;101400.28;4895779;29;20144;-76
2022/08/03 00:44:42;;;;;;;5.82;2.13;;;;;;;20.37;70.99;101402.28;4896958;29;20491;-76
2022/08/03 00:47:10;;;;;;;8.48;2.35;;;;;;;20.32;70.87;101401.69;4895286;29;20501;-76
2022/08/03 00:49:41;;;;;;;9.45;2.40;;;;;;;20.26;71.16;101407.44;4895619;29;20052;-76
2022/08/03 00:52:12;;;;;;;7.85;2.50;;;;;;;20.23;71.38;101399.59;4895531;29;20037;-76
2022/08/03 00:54:39;;;;;;;5.25;2.30;;;;;;;20.19;71.52;101396.25;4894165;29;20093;-76
2022/08/03 00:57:07;;;;;;;8.88;3.22;;;;;;;20.14;71.97;101406.41;4887778;29;20518;-76
2022/08/03 00:59:37;;;;;;;7.35;3.15;;;;;;;20.08;72.24;101410.31;4893840;29;20131;-76
2022/08/03 01:02:04;;;;;;;6.25;3.53;;;;;;;20.04;72.49;101398.06;4894574;29;20053;-75
2022/08/03 01:04:31;;;;;;;8.73;3.13;;;;;;;20.02;72.39;101399.97;4896648;29;20063;-76
2022/08/03 01:07:42;;;;;;;5.82;3.25;;;;;;;20.00;72.79;101399.19;4893776;29;20776;-75
2022/08/03 01:10:27;;;;;;;5.68;3.20;;;;;;;19.96;72.77;101392.34;4894001;29;20044;-75
2022/08/03 01:13:20;;;;;;;10.13;3.20;;;;;;;19.92;72.85;101396.16;4893029;29;20090;-75
2022/08/03 01:16:52;;;;;;;6.13;2.70;;;;;;;19.86;72.57;101389.34;4894752;29;20053;-75
2022/08/03 01:19:55;;;;;;;7.97;3.20;;;;;;;19.82;72.69;101394.00;4892748;29;20088;-75
2022/08/03 01:23:00;;;;;;;7.68;3.08;;;;;;;19.77;72.31;101382.72;4887125;29;20151;-75
2022/08/03 01:25:58;;;;;;;7.10;3.10;;;;;;;19.74;72.62;101380.22;4892826;29;20107;-75
2022/08/03 01:28:53;;;;;;;10.20;3.38;;;;;;;19.69;72.74;101384.97;4885676;29;20508;-75
2022/08/03 01:31:28;;;;;;;6.72;3.40;;;;;;;19.63;72.65;101380.00;4891787;29;20493;-75
2022/08/03 01:34:05;;;;;;;8.90;3.42;;;;;;;19.60;72.76;101381.06;4893393;29;20120;-75
2022/08/03 01:36:51;;;;;;;8.90;3.63;;;;;;;19.55;72.91;101381.34;4895534;29;20550;-75
2022/08/03 01:39:21;;;;;;;4.32;2.67;;;;;;;19.50;73.38;101375.41;4895311;29;20052;-74
2022/08/03 01:41:58;;;;;;;9.38;3.85;;;;;;;19.46;73.28;101387.25;4894965;29;20112;-74
2022/08/03 01:44:30;;;;;;;9.05;3.35;;;;;;;19.39;73.45;101380.50;4895487;29;20124;-74
2022/08/03 01:47:03;;;;;;;7.35;3.25;;;;;;;19.38;73.61;101379.66;4887730;29;20045;-74
2022/08/03 01:49:38;;;;;;;10.27;3.35;;;;;;;19.35;73.57;101376.31;4892059;29;20166;-75
2022/08/03 01:52:07;;;;;;;6.28;3.20;;;;;;;19.34;73.97;101377.28;4896891;29;20097;-75
2022/08/03 01:54:44;;;;;;;6.35;3.38;;;;;;;19.32;73.75;101372.03;4896716;29;20539;-75
2022/08/03 01:57:13;;;;;;;9.15;3.45;;;;;;;19.30;73.91;101379.25;4896518;29;20045;-76
2022/08/03 01:59:43;;;;;;;5.38;3.80;;;;;;;19.28;74.08;101372.28;4882072;29;20075;-76
2022/08/03 02:02:14;;;;;;;6.05;3.58;;;;;;;19.26;74.44;101375.03;4896310;29;20048;-75
2022/08/03 02:05:03;;;;;;;9.10;3.38;;;;;;;19.23;74.09;101365.41;4880496;29;20061;-75
2022/08/03 02:07:33;;;;;;;8.80;3.22;;;;;;;19.21;74.59;101364.63;4893544;29;20045;-75
2022/08/03 02:10:05;;;;;;;6.43;3.60;;;;;;;19.21;74.90;101375.31;4897669;29;20072;-75
2022/08/03 02:12:36;;;;;;;6.15;3.28;;;;;;;19.19;74.54;101374.53;4896803;29;20040;-75
2022/08/03 02:15:07;;;;;;;7.78;3.58;;;;;;;19.18;74.42;101370.13;4899133;29;20537;-75
2022/08/03 02:17:36;;;;;;;8.05;3.53;;;;;;;19.17;74.52;101371.13;4893603;29;20048;-75
2022/08/03 02:20:12;;;;;;;11.02;3.90;;;;;;;19.16;74.56;101374.72;4896081;29;20556;-75
2022/08/03 02:22:42;;;;;;;13.50;3.30;;;;;;;19.12;74.52;101370.50;4896160;29;20052;-75
2022/08/03 02:25:14;;;;;;;6.63;3.25;;;;;;;19.08;74.93;101369.81;4896628;29;20545;-75
2022/08/03 02:27:58;;;;;;;7.88;3.20;;;;;;;19.06;74.93;101371.72;4887044;29;20433;-75
2022/08/03 02:30:37;;;;;;;6.30;3.47;;;;;;;19.01;75.09;101367.59;4882681;29;20045;-76
2022/08/03 02:33:17;;;;;;;6.80;3.33;;;;;;;18.98;75.20;101370.44;4897025;29;20041;-77
2022/08/03 02:35:48;;;;;;;7.82;3.22;;;;;;;18.96;75.19;101367.84;4895582;29;20041;-75
2022/08/03 02:38:22;;;;;;;9.48;3.55;;;;;;;18.93;75.29;101363.56;4887545;29;20120;-75
2022/08/03 02:40:52;;;;;;;7.05;3.42;;;;;;;18.91;75.05;101361.91;4909470;29;20081;-75
2022/08/03 02:43:23;;;;;;;7.60;3.88;;;;;;;18.90;75.36;101365.50;4893594;29;20481;-74
2022/08/03 02:45:53;;;;;;;8.07;3.63;;;;;;;18.88;75.78;101356.72;4880975;29;20076;-75
2022/08/03 02:48:26;;;;;;;7.85;3.92;;;;;;;18.84;75.84;101353.38;4896589;29;20049;-75
2022/08/03 02:50:57;;;;;;;11.35;4.45;;;;;;;18.86;75.92;101356.81;4896241;29;20121;-75
2022/08/03 02:53:27;;;;;;;10.02;4.30;;;;;;;18.87;75.77;101350.50;4896511;29;20064;-75
2022/08/03 02:55:57;;;;;;;10.23;4.97;;;;;;;18.88;75.80;101349.56;4894313;29;20049;-75
2022/08/03 02:58:25;;;;;;;11.10;4.28;;;;;;;18.91;75.80;101356.56;4896325;29;20568;-75
2022/08/03 03:00:54;;;;;;;11.43;5.13;;;;;;;18.93;75.79;101354.66;4896859;29;20045;-75
2022/08/03 03:03:22;;;;;;;8.18;4.75;;;;;;;18.93;75.88;101352.88;4896194;29;20052;-76
2022/08/03 03:05:52;;;;;;;12.88;5.40;;;;;;;18.95;75.99;101352.78;4895870;29;20576;-76
2022/08/03 03:08:25;;;;;;;10.85;4.47;;;;;;;18.95;75.95;101350.09;4892204;29;20052;-76
2022/08/03 03:11:00;;;;;;;17.60;4.80;;;;;;;18.97;76.05;101350.03;4897225;29;20056;-76
2022/08/03 03:13:29;;;;;;;9.48;4.80;;;;;;;18.97;76.08;101348.22;4894810;29;20086;-76
2022/08/03 03:16:01;;;;;;;10.07;4.72;;;;;;;19.00;76.41;101353.38;4884145;29;20056;-76
2022/08/03 03:18:32;;;;;;;9.20;5.10;;;;;;;18.99;76.69;101362.34;4896295;29;20045;-77
2022/08/03 03:21:07;;;;;;;12.13;5.60;;;;;;;18.98;76.71;101355.28;4896405;29;20055;-76
2022/08/03 03:23:37;;;;;;;12.98;5.15;;;;;;;18.98;76.69;101354.41;4888202;29;20619;-77
2022/08/03 03:26:06;;;;;;;11.75;5.22;;;;;;;18.98;76.85;101351.72;4896053;29;20045;-75
2022/08/03 03:28:36;;;;;;;10.68;4.85;;;;;;;18.98;76.79;101357.06;4896175;29;20049;-75
2022/08/03 03:31:05;;;;;;;11.88;5.35;;;;;;;19.00;76.96;101356.06;4893584;29;20041;-75
2022/08/03 03:33:34;;;;;;;11.80;5.60;;;;;;;19.01;76.82;101354.22;4890491;29;20085;-75
2022/08/03 03:36:03;;;;;;;8.05;4.97;;;;;;;19.01;77.08;101352.44;4879968;29;20853;-75
2022/08/03 03:38:32;;;;;;;9.68;5.28;;;;;;;19.01;77.28;101355.09;4891585;29;20145;-75
2022/08/03 03:41:02;;;;;;;11.13;5.75;;;;;;;19.01;77.10;101351.56;4896949;29;20041;-74
2022/08/03 03:43:32;;;;;;;10.77;5.32;;;;;;;18.98;76.88;101360.63;4894651;29;20658;-76
2022/08/03 03:46:00;;;;;;;10.57;5.80;;;;;;;18.99;76.76;101358.78;4894529;29;20049;-75
2022/08/03 03:48:27;;;;;;;12.52;5.43;;;;;;;18.96;76.95;101350.97;4896253;29;20472;-75
2022/08/03 03:50:56;;;;;;;11.90;5.82;;;;;;;18.96;76.97;101350.97;4896752;29;20080;-75
2022/08/03 03:53:23;;;;;;;13.90;5.63;;;;;;;18.94;76.96;101353.72;4894808;29;20259;-75
2022/08/03 03:55:52;;;;;;;12.18;5.68;;;;;;;18.95;77.19;101358.13;4881656;29;20061;-76
2022/08/03 03:58:31;;;;;;;9.45;5.53;;;;;;;18.95;76.98;101351.94;4884467;29;20821;-75
2022/08/03 04:00:59;;;;;;;10.73;5.68;;;;;;;18.95;77.19;101354.59;4891269;29;20550;-75
2022/08/03 04:03:26;;;;;;;12.77;5.35;;;;;;;18.93;77.11;101355.53;4894440;29;20059;-75
2022/08/03 04:11:38;;;;;;;15.85;5.80;;;;;;;18.92;77.58;101358.28;4895930;29;20065;-75
2022/08/03 04:14:14;;;;;;;18.02;6.15;;;;;;;18.92;77.34;101350.28;4891964;29;20536;-74
2022/08/03 04:16:48;;;;;;;11.15;5.93;;;;;;;18.92;77.61;101356.47;4880195;29;20037;-75
2022/08/03 04:19:42;;;;;;;12.68;5.68;;;;;;;18.97;77.59;101360.72;4889471;29;20094;-75
2022/08/03 04:22:16;;;;;;;10.77;5.78;;;;;;;18.97;77.62;101358.91;4890381;29;20445;-75
2022/08/03 04:24:50;;;;;;;11.20;5.50;;;;;;;18.97;77.57;101353.56;4893510;29;20057;-75
2022/08/03 04:27:24;;;;;;;12.13;6.00;;;;;;;19.00;77.37;101358.72;4885039;29;20064;-75
2022/08/03 04:29:55;;;;;;;12.98;5.68;;;;;;;19.03;77.45;101358.53;4894037;29;20418;-75
2022/08/03 04:32:27;;;;;;;12.45;6.18;;;;;;;19.05;77.23;101359.31;4895863;29;20051;-75
2022/08/03 04:34:55;;;;;;;16.70;6.72;;;;;;;19.06;77.52;101355.69;4892014;29;20128;-76
2022/08/03 04:37:40;;;;;;;16.55;6.15;;;;;;;19.12;77.61;101357.13;4893250;29;20037;-75
2022/08/03 04:40:19;;;;;;;11.15;6.47;;;;;;;19.16;77.87;101356.03;4890047;29;20124;-75
2022/08/03 04:42:52;;;;;;;13.93;6.32;;;;;;;19.22;77.93;101360.16;4891939;29;20086;-74
2022/08/03 04:45:20;;;;;;;12.35;6.13;;;;;;;19.27;77.83;101360.72;4892280;29;20037;-74
2022/08/03 04:47:49;;;;;;;20.38;5.47;;;;;;;19.37;77.77;101364.56;4891971;29;20055;-74
2022/08/03 04:50:17;;;;;;;16.83;5.63;;;;;;;19.50;77.88;101363.84;4895192;29;20041;-76
2022/08/03 04:53:05;;;;;;;17.02;6.32;;;;;;;19.60;77.33;101362.34;4886489;29;20049;-74
2022/08/03 04:55:35;;;;;;;16.40;6.25;;;;;;;19.72;77.30;101366.09;4884428;29;20064;-75
2022/08/03 04:58:03;;;;;;;13.00;5.07;;;;;;;19.81;77.26;101357.50;4892678;29;20049;-74
2022/08/03 05:00:31;;;;;;;17.52;6.70;;;;;;;19.91;76.92;101371.22;4894495;29;20068;-75
2022/08/03 05:02:58;;;;;;;18.65;6.07;;;;;;;19.96;76.46;101366.44;4893583;29;20045;-74
2022/08/03 05:05:25;;;;;;;15.52;5.55;;;;;;;20.04;76.29;101373.16;4893151;29;20085;-74
2022/08/03 05:08:12;;;;;;;14.82;6.20;;;;;;;20.07;76.36;101371.13;4890149;29;20045;-75
2022/08/03 05:10:40;;;;;;;22.73;6.93;;;;;;;20.09;76.15;101368.34;4887969;29;20049;-74
2022/08/03 05:13:10;;;;;;;31.75;6.85;;;;;;;20.09;75.85;101369.22;4888374;29;20037;-74
2022/08/03 05:15:39;;;;;;;22.45;7.05;;;;;;;20.15;75.65;101379.53;4886120;29;20044;-74
2022/08/03 05:18:09;;;;;;;12.88;6.43;;;;;;;20.20;75.67;101376.56;4882791;29;20072;-74
2022/08/03 05:20:41;;;;;;;14.63;6.70;;;;;;;20.25;75.89;101378.97;4887909;29;20056;-74
2022/08/03 05:23:08;;;;;;;16.75;6.10;;;;;;;20.31;75.51;101382.13;4890417;29;20052;-74
2022/08/03 05:25:35;;;;;;;17.20;6.57;;;;;;;20.43;75.37;101376.94;4899443;29;20045;-74
2022/08/03 05:28:03;;;;;;;14.18;6.00;;;;;;;20.58;74.78;101381.31;4897431;29;20084;-74
2022/08/03 05:30:30;;;;;;;24.85;6.93;;;;;;;21.65;72.78;101374.31;4895978;29;20043;-74
2022/08/03 05:33:02;;;;;;;16.05;5.45;;;;;;;23.85;66.82;101365.53;4896192;29;20045;-75
2022/08/03 05:35:31;;;;;;;21.90;5.35;;;;;;;23.93;65.80;101381.09;4884699;29;20572;-75
2022/08/03 05:38:18;;;;;;;23.20;5.50;;;;;;;24.85;62.40;101372.00;4889564;29;20049;-75
2022/08/03 05:40:55;;;;;;;10.18;4.05;;;;;;;27.13;56.93;101370.19;4896134;29;20041;-76
2022/08/03 05:43:23;;;;;;;9.63;4.18;;;;;;;28.90;51.69;101371.47;4893735;29;20045;-76
2022/08/03 05:45:51;;;;;;;10.05;3.83;;;;;;;30.00;48.56;101369.28;4898668;29;20037;-75
2022/08/03 05:48:38;;;;;;;12.45;3.90;;;;;;;29.90;47.25;101369.38;4899382;29;20045;-75
2022/08/03 05:51:06;;;;;;;17.52;5.05;;;;;;;30.40;46.31;101368.75;4897359;29;20045;-75
2022/08/03 05:53:34;;;;;;;10.02;3.67;;;;;;;31.16;44.22;101374.22;4899522;29;20044;-75
2022/08/03 05:56:01;;;;;;;15.23;4.35;;;;;;;31.55;43.46;101378.97;4899527;29;20648;-75
2022/08/03 05:58:39;;;;;;;18.35;3.53;;;;;;;32.67;40.84;101375.41;4892422;29;20050;-75
2022/08/03 06:01:06;;;;;;;20.10;4.65;;;;;;;33.37;39.60;101375.44;4897622;29;20535;-77
2022/08/03 06:03:33;;;;;;;14.02;3.97;;;;;;;33.68;38.05;101377.19;4904343;29;20490;-76
2022/08/03 06:06:00;;;;;;;27.77;4.70;;;;;;;32.36;39.40;101379.81;4914251;29;20055;-76
2022/08/03 06:08:27;;;;;;;14.88;4.00;;;;;;;30.50;42.57;101383.94;4895884;29;20552;-77
2022/08/03 06:10:54;;;;;;;12.85;3.63;;;;;;;28.75;45.77;101377.41;4897553;29;20041;-77
2022/08/03 06:13:24;;;;;;;9.75;3.50;;;;;;;27.37;48.88;101381.56;4897802;29;20107;-77
2022/08/03 06:15:52;;;;;;;17.92;4.50;;;;;;;26.36;51.44;101393.34;4897168;29;20123;-77
2022/08/03 06:18:19;;;;;;;10.80;3.83;;;;;;;25.61;53.50;101390.81;4898277;29;20045;-77
2022/08/03 06:20:47;;;;;;;9.50;3.60;;;;;;;25.01;55.10;101385.91;4897286;29;20056;-77
2022/08/03 06:23:17;;;;;;;16.42;4.18;;;;;;;24.60;56.61;101392.84;4896836;29;20579;-77
2022/08/03 06:25:44;;;;;;;13.35;3.60;;;;;;;24.27;57.70;101399.97;4896895;29;20045;-76
2022/08/03 06:28:17;;;;;;;10.77;3.00;;;;;;;24.00;58.83;101401.19;4897773;29;20480;-76
2022/08/03 06:31:04;;;;;;;12.25;3.03;;;;;;;23.76;59.81;101406.63;4888813;29;20501;-77
2022/08/03 06:33:32;;;;;;;13.60;3.03;;;;;;;23.60;60.44;101415.91;4900946;29;20045;-76
2022/08/03 06:36:19;;;;;;;21.67;3.20;;;;;;;23.47;60.65;101402.50;4907558;29;20065;-75
2022/08/03 06:38:47;;;;;;;16.10;3.17;;;;;;;23.42;61.63;101410.06;4897544;29;20419;-76
2022/08/03 06:41:14;;;;;;;17.08;3.30;;;;;;;23.36;61.69;101405.16;4891463;29;20049;-77
2022/08/03 06:43:41;;;;;;;15.30;2.67;;;;;;;23.33;61.83;101400.88;4896824;29;20479;-73
2022/08/03 06:46:28;;;;;;;12.07;3.03;;;;;;;23.35;61.58;101407.00;4894232;29;20052;-74
2022/08/03 06:48:55;;;;;;;12.65;2.40;;;;;;;23.39;61.99;101405.78;4898561;29;20044;-74
2022/08/03 06:51:22;;;;;;;8.00;2.00;;;;;;;23.47;61.84;101415.94;4897798;29;20070;-74
2022/08/03 06:54:09;;;;;;;11.82;2.22;;;;;;;23.51;61.93;101421.94;4895460;29;20124;-74
2022/08/03 06:56:37;;;;;;;9.85;2.13;;;;;;;23.54;61.32;101419.91;4894640;29;20045;-74
2022/08/03 06:59:05;;;;;;;15.07;1.92;;;;;;;23.61;61.04;101419.44;4897655;29;20047;-74
2022/08/03 07:01:32;;;;;;;8.20;1.55;;;;;;;23.66;60.92;101410.03;4890784;29;20041;-61
2022/08/03 07:04:00;;;;;;;10.60;2.22;;;;;;;23.70;60.80;101416.03;4878969;29;20066;-61
2022/08/03 07:06:27;;;;;;;7.03;1.80;;;;;;;23.74;60.60;101409.44;4891803;29;20128;-61
2022/08/03 07:08:55;;;;;;;12.77;2.10;;;;;;;23.81;59.78;101413.38;4895717;29;20649;-60
2022/08/03 07:11:27;;;;;;;18.10;2.67;;;;;;;23.82;60.08;101414.22;4898198;29;20121;-61
2022/08/03 07:13:55;;;;;;;12.77;1.95;;;;;;;23.87;60.46;101418.25;4898488;29;20926;-61
2022/08/03 07:16:22;;;;;;;11.05;2.10;;;;;;;23.96;59.61;101411.34;4897652;29;20077;-60
2022/08/03 07:18:49;;;;;;;10.32;2.00;;;;;;;23.99;59.59;101413.81;4896751;29;20053;-62
2022/08/03 07:21:16;;;;;;;4.72;1.55;;;;;;;24.04;59.40;101414.28;4901142;29;20052;-61
2022/08/03 07:23:44;;;;;;;15.45;2.28;;;;;;;24.09;59.03;101416.59;4890076;29;20038;-60
2022/08/03 07:26:12;;;;;;;23.67;2.80;;;;;;;24.18;58.82;101423.13;4898955;29;20048;-60
2022/08/03 07:28:39;;;;;;;77.38;5.18;;;;;;;24.30;59.26;101426.66;4897642;29;20067;-71
2022/08/03 07:31:06;;;;;;;17.42;2.72;;;;;;;24.39;58.96;101422.38;4898858;29;20147;-71
2022/08/03 07:33:34;;;;;;;16.58;2.30;;;;;;;24.45;58.35;101424.56;4897622;29;20069;-70
2022/08/03 07:36:03;;;;;;;10.48;1.70;;;;;;;24.46;57.75;101429.88;4908934;29;20049;-70
2022/08/03 07:38:30;;;;;;;10.93;2.17;;;;;;;24.46;57.71;101432.56;4902113;29;20041;-70
2022/08/03 07:40:57;;;;;;;7.40;1.52;;;;;;;24.49;57.48;101423.38;4901518;29;20048;-72
2022/08/03 07:43:24;;;;;;;7.30;1.92;;;;;;;24.55;57.24;101422.00;4916828;29;20052;-70
2022/08/03 07:45:51;;;;;;;9.35;1.63;;;;;;;24.58;57.45;101427.13;4916180;29;20043;-71
2022/08/03 07:48:18;;;;;;;10.68;1.80;;;;;;;24.64;57.34;101423.97;4916601;29;20079;-74
2022/08/03 07:50:46;;;;;;;9.75;1.85;;;;;;;24.68;57.37;101424.56;4905201;29;20553;-72
2022/08/03 07:53:13;;;;;;;4.85;1.50;;;;;;;24.79;56.65;101424.59;4900958;29;20053;-73
2022/08/03 07:55:41;;;;;;;4.80;1.40;;;;;;;24.92;57.04;101425.28;4897377;29;20048;-71
2022/08/03 07:58:14;;;;;;;6.93;2.08;;;;;;;25.01;56.33;101420.97;4895152;29;20076;-71
2022/08/03 08:00:45;;;;;;;9.80;1.83;;;;;;;25.14;56.21;101420.78;4891987;29;20065;-73
2022/08/03 08:03:12;;;;;;;8.25;1.83;;;;;;;25.23;55.92;101417.31;4880579;29;20425;-75
2022/08/03 08:05:39;;;;;;;14.38;1.88;;;;;;;25.34;55.91;101418.25;4884492;29;20529;-72
2022/08/03 08:08:07;;;;;;;10.10;2.10;;;;;;;25.39;55.61;101422.28;4886371;29;20876;-74
2022/08/03 08:10:34;;;;;;;13.05;1.60;;;;;;;25.51;54.29;101422.28;4899586;29;20120;-74
2022/08/03 08:13:03;;;;;;;12.02;1.67;;;;;;;25.55;53.81;101416.47;4899836;29;20136;-72
2022/08/03 08:15:31;;;;;;;29.15;3.17;;;;;;;25.59;53.60;101417.06;4899339;29;20473;-72
2022/08/03 08:18:01;;;;;;;8.25;1.48;;;;;;;25.61;53.46;101414.25;4900094;29;20043;-72
2022/08/03 08:20:32;;;;;;;6.60;1.85;;;;;;;25.64;53.47;101411.31;4897929;29;20048;-72
2022/08/03 08:23:04;;;;;;;9.27;1.50;;;;;;;25.68;53.63;101413.59;4883074;29;20065;-74
2022/08/03 08:25:52;;;;;;;7.38;1.42;;;;;;;25.76;52.99;101421.03;4894070;29;20052;-71
2022/08/03 08:28:21;;;;;;;14.65;1.90;;;;;;;25.83;52.41;101415.97;4911962;29;20056;-72
2022/08/03 08:31:00;;;;;;;11.70;1.40;;;;;;;25.95;52.32;101419.44;4912793;29;20040;-76
2022/08/03 08:33:29;;;;;;;7.10;1.60;;;;;;;26.08;51.63;101411.13;4886036;29;20124;-74
2022/08/03 08:36:17;;;;;;;9.18;1.45;;;;;;;26.10;51.93;101420.00;4877848;29;20053;-76
2022/08/03 08:38:44;;;;;;;14.50;1.85;;;;;;;26.17;51.79;101416.59;4878368;29;20060;-76
2022/08/03 08:41:13;;;;;;;17.20;2.17;;;;;;;26.16;51.81;101416.75;4889544;29;20041;-72
2022/08/03 08:43:41;;;;;;;9.25;1.63;;;;;;;26.21;52.04;101417.19;4893449;29;20048;-73
2022/08/03 08:46:14;;;;;;;6.65;1.90;;;;;;;26.32;51.32;101414.38;4893537;29;20056;-73
2022/08/03 08:48:52;;;;;;;8.23;1.45;;;;;;;26.36;51.29;101414.97;4890354;29;20046;-73
2022/08/03 08:51:26;;;;;;;9.13;1.50;;;;;;;26.38;51.05;101413.00;4895336;29;20123;-72
2022/08/03 08:54:16;;;;;;;4.57;1.30;;;;;;;26.45;51.32;101413.31;4901329;29;20048;-72
2022/08/03 08:56:44;;;;;;;8.70;1.50;;;;;;;26.52;51.79;101414.44;4896332;29;20935;-71
2022/08/03 08:59:12;;;;;;;5.72;1.17;;;;;;;26.63;51.45;101416.22;4891755;29;20033;-75
2022/08/03 09:01:39;;;;;;;16.92;2.00;;;;;;;26.73;50.78;101414.38;4899455;29;20059;-76
2022/08/03 09:04:06;;;;;;;12.07;2.00;;;;;;;26.83;50.85;101417.13;4887357;29;20061;-74
2022/08/03 09:06:33;;;;;;;9.45;1.65;;;;;;;26.96;49.88;101408.78;4889886;29;20049;-74
2022/08/03 09:09:00;;;;;;;6.53;1.45;;;;;;;27.07;49.39;101414.03;4877872;29;20453;-74
2022/08/03 09:11:27;;;;;;;14.25;1.88;;;;;;;27.18;48.66;101413.06;4902192;29;20123;-75
2022/08/03 09:14:14;;;;;;;17.98;2.67;;;;;;;27.27;48.61;101423.03;4895259;29;20499;-73
2022/08/03 09:17:03;;;;;;;14.07;1.85;;;;;;;27.35;48.55;101414.19;4896061;29;20729;-72
2022/08/03 09:19:33;;;;;;;16.42;2.30;;;;;;;27.37;48.31;101409.47;4884397;29;20049;-75
2022/08/03 09:22:09;;;;;;;17.05;1.90;;;;;;;27.36;48.48;101409.63;4894312;29;20128;-73
2022/08/03 09:24:37;;;;;;;11.35;1.80;;;;;;;27.44;48.37;101415.19;4892106;29;20053;-74
2022/08/03 09:27:12;;;;;;;10.88;2.00;;;;;;;27.57;47.50;101409.50;4894278;29;20076;-75
2022/08/03 09:29:40;;;;;;;14.88;2.25;;;;;;;27.66;47.43;101415.91;4893726;29;20521;-74
2022/08/03 09:32:09;;;;;;;17.50;2.00;;;;;;;27.79;47.17;101416.44;4895687;29;20049;-76
2022/08/03 09:34:37;;;;;;;7.60;1.58;;;;;;;27.91;47.04;101406.28;4892603;29;20509;-76
2022/08/03 09:37:18;;;;;;;10.23;1.75;;;;;;;28.07;46.42;101399.41;4893590;29;20853;-74
2022/08/03 09:40:06;;;;;;;17.55;2.22;;;;;;;28.20;46.59;101405.34;4894071;29;20085;-74
2022/08/03 09:42:37;;;;;;;23.33;2.72;;;;;;;28.30;46.12;101408.03;4897338;29;20128;-74
2022/08/03 09:45:04;;;;;;;8.48;1.67;;;;;;;28.43;44.89;101408.56;4892949;29;20079;-74
2022/08/03 09:47:38;;;;;;;7.30;1.33;;;;;;;28.44;44.11;101417.53;4893297;29;20049;-75
2022/08/03 09:50:11;;;;;;;18.27;2.97;;;;;;;28.47;44.88;101407.25;4890355;29;20128;-75
2022/08/03 09:52:42;;;;;;;6.70;1.48;;;;;;;28.64;45.13;101415.59;4896327;29;20045;-74
2022/08/03 09:55:19;;;;;;;12.70;1.67;;;;;;;28.72;44.54;101401.28;4892582;29;20049;-73
2022/08/03 09:58:09;;;;;;;4.60;1.40;;;;;;;28.80;44.18;101407.66;4894795;29;20044;-74
2022/08/03 10:00:56;;;;;;;7.90;1.42;;;;;;;28.88;43.65;101403.31;4895327;29;20052;-75
2022/08/03 10:03:27;;;;;;;12.82;1.80;;;;;;;28.99;43.21;101411.22;4891380;29;20045;-74
2022/08/03 10:05:55;;;;;;;17.63;2.22;;;;;;;29.13;43.25;101418.84;4887967;29;20053;-75
2022/08/03 10:08:26;;;;;;;10.05;1.40;;;;;;;29.26;42.64;101409.44;4894757;29;20852;-75
2022/08/03 10:10:53;;;;;;;48.00;4.50;;;;;;;29.32;43.26;101408.81;4900959;29;20055;-75
2022/08/03 10:13:22;;;;;;;24.05;2.65;;;;;;;29.46;42.29;101409.28;4898061;29;20577;-63
2022/08/03 10:15:51;;;;;;;9.40;1.85;;;;;;;29.54;41.99;101406.66;4894916;29;20049;-65
2022/08/03 10:18:38;;;;;;;24.27;2.17;;;;;;;29.60;41.78;101403.31;4892910;29;20049;-64
2022/08/03 10:21:14;;;;;;;39.47;3.30;;;;;;;29.66;41.99;101409.97;4899794;29;20048;-64
2022/08/03 10:23:42;;;;;;;14.45;1.75;;;;;;;29.72;42.14;101398.44;4893149;29;21652;-64
2022/08/03 10:26:17;;;;;;;11.95;1.75;;;;;;;29.81;41.13;101394.78;4897535;29;20045;-65
2022/08/03 10:28:49;;;;;;;10.48;1.63;;;;;;;29.91;40.63;101394.69;4897531;29;20045;-67
2022/08/03 10:31:22;;;;;;;13.77;1.85;;;;;;;29.94;39.88;101393.53;4895183;29;20900;-64
2022/08/03 10:33:54;;;;;;;10.55;2.03;;;;;;;30.01;40.60;101384.56;4897391;29;20120;-64
2022/08/03 10:36:26;;;;;;;10.88;1.67;;;;;;;30.13;39.67;101381.59;4897282;29;20132;-66
2022/08/03 10:38:55;;;;;;;16.40;2.60;;;;;;;30.20;39.72;101386.22;4897626;29;20041;-66
2022/08/03 10:41:37;;;;;;;13.55;2.08;;;;;;;30.18;39.04;101377.34;4899596;29;20073;-66
2022/08/03 10:44:12;;;;;;;11.20;1.88;;;;;;;30.20;39.23;101380.78;4893060;29;20576;-67
2022/08/03 10:46:41;;;;;;;19.15;2.60;;;;;;;30.23;39.01;101373.28;4891307;29;20131;-67
2022/08/03 10:49:16;;;;;;;8.60;2.03;;;;;;;30.32;39.04;101383.22;4896992;29;20041;-67
2022/08/03 10:52:03;;;;;;;17.75;2.33;;;;;;;30.42;39.14;101383.06;4899976;29;20052;-67
2022/08/03 10:57:53;;;;;;;11.20;1.85;;;;;;;30.67;39.19;101375.84;4897211;29;20059;-66
2022/08/03 11:00:28;;;;;;;12.68;2.15;;;;;;;30.80;38.70;101367.19;4897168;29;20131;-65
2022/08/03 11:03:12;;;;;;;19.35;2.00;;;;;;;30.82;37.87;101371.47;4888003;29;20136;-65
2022/08/03 11:05:47;;;;;;;13.07;2.45;;;;;;;30.81;37.96;101363.47;4895573;29;20839;-65
2022/08/03 11:08:26;;;;;;;11.00;1.90;;;;;;;30.81;38.48;101367.03;4896825;29;20053;-65
2022/08/03 11:11:19;;;;;;;16.08;1.85;;;;;;;30.87;39.22;101357.38;4896176;29;20509;-65
2022/08/03 11:14:10;;;;;;;14.77;2.50;;;;;;;31.07;37.60;101357.03;4884255;29;20064;-66
2022/08/03 11:16:41;;;;;;;11.52;2.35;;;;;;;31.07;37.70;101357.88;4895370;29;20049;-66
2022/08/03 11:19:11;;;;;;;16.98;2.03;;;;;;;31.16;37.65;101347.88;4897382;29;20566;-66
2022/08/03 11:22:03;;;;;;;18.63;2.78;;;;;;;31.29;37.98;101348.19;4897109;29;20112;-66
2022/08/03 11:24:46;;;;;;;16.17;2.67;;;;;;;31.42;36.72;101350.41;4896693;29;20045;-66
2022/08/03 11:27:13;;;;;;;20.75;2.78;;;;;;;31.48;37.18;101351.59;4894518;29;20127;-66
2022/08/03 11:30:01;;;;;;;21.30;3.78;;;;;;;31.61;37.52;101351.06;4896048;29;20136;-66
2022/08/03 11:32:38;;;;;;;27.20;4.00;;;;;;;31.78;37.12;101337.41;4892497;29;20045;-66
2022/08/03 11:35:15;;;;;;;21.27;2.50;;;;;;;31.89;36.90;101343.34;4895203;29;20093;-66
2022/08/03 11:37:57;;;;;;;16.02;2.63;;;;;;;31.97;36.73;101347.06;4896499;29;20045;-66
2022/08/03 11:40:45;;;;;;;28.15;2.90;;;;;;;32.10;35.84;101349.22;4886166;29;20076;-67
2022/08/03 11:43:22;;;;;;;12.73;2.33;;;;;;;32.16;34.51;101352.09;4887936;29;20124;-67
2022/08/03 11:46:20;;;;;;;22.27;4.88;;;;;;;32.09;34.95;101344.81;4897971;29;20072;-68
2022/08/03 11:49:08;;;;;;;13.27;2.25;;;;;;;32.10;35.31;101349.22;4909531;29;20461;-67
2022/08/03 11:51:38;;;;;;;15.80;2.92;;;;;;;31.99;35.82;101339.56;4897284;29;20152;-67
2022/08/03 11:54:06;;;;;;;15.35;2.47;;;;;;;31.96;35.39;101337.19;4893674;29;20045;-67
2022/08/03 11:56:48;;;;;;;18.10;2.70;;;;;;;32.02;35.66;101345.53;4884207;29;20103;-67